sensor_id;sensor_type;location;lat;lon;timestamp;temperature;humidity
19734;DHT22;10018;51.230;7.860;2023-03-09T00:01:48;2.50;99.90
19734;DHT22;10018;51.230;7.860;2023-03-09T00:04:15;2.50;99.90
19734;DHT22;10018;51.230;7.860;2023-03-09T00:06:41;2.50;99.90
19734;DHT22;10018;51.230;7.860;2023-03-09T00:09:07;2.60;99.90
19734;DHT22;10018;51.230;7.860;2023-03-09T00:11:34;2.60;99.90
19734;DHT22;10018;51.230;7.860;2023-03-09T00:13:59;2.60;99.90
19734;DHT22;10018;51.230;7.860;2023-03-09T00:16:27;2.60;99.90
19734;DHT22;10018;51.230;7.860;2023-03-09T00:18:54;2.60;99.90
19734;DHT22;10018;51.230;7.860;2023-03-09T00:21:22;2.60;99.90
19734;DHT22;10018;51.230;7.860;2023-03-09T00:26:35;2.50;99.90
19734;DHT22;10018;51.230;7.860;2023-03-09T00:29:03;2.60;99.90
19734;DHT22;10018;51.230;7.860;2023-03-09T00:31:28;2.60;99.90
19734;DHT22;10018;51.230;7.860;2023-03-09T00:33:54;2.60;99.90
19734;DHT22;10018;51.230;7.860;2023-03-09T00:36:20;2.60;99.90
19734;DHT22;10018;51.230;7.860;2023-03-09T00:38:53;2.60;99.90
19734;DHT22;10018;51.230;7.860;2023-03-09T00:41:20;2.60;99.90
19734;DHT22;10018;51.230;7.860;2023-03-09T00:43:49;2.60;99.90
19734;DHT22;10018;51.230;7.860;2023-03-09T00:46:15;2.60;99.90
19734;DHT22;10018;51.230;7.860;2023-03-09T00:48:43;2.60;99.90
19734;DHT22;10018;51.230;7.860;2023-03-09T00:51:10;2.60;99.90
19734;DHT22;10018;51.230;7.860;2023-03-09T00:53:36;2.60;99.90
19734;DHT22;10018;51.230;7.860;2023-03-09T00:56:07;2.60;99.90
19734;DHT22;10018;51.230;7.860;2023-03-09T00:58:34;2.60;99.90
19734;DHT22;10018;51.230;7.860;2023-03-09T01:00:59;2.60;99.90
19734;DHT22;10018;51.230;7.860;2023-03-09T01:03:25;2.70;99.90
19734;DHT22;10018;51.230;7.860;2023-03-09T01:05:51;2.60;99.90
19734;DHT22;10018;51.230;7.860;2023-03-09T01:08:17;2.60;99.90
19734;DHT22;10018;51.230;7.860;2023-03-09T01:10:43;2.60;99.90
19734;DHT22;10018;51.230;7.860;2023-03-09T01:13:09;2.60;99.90
19734;DHT22;10018;51.230;7.860;2023-03-09T01:15:38;2.60;99.90
19734;DHT22;10018;51.230;7.860;2023-03-09T01:18:03;2.60;99.90
19734;DHT22;10018;51.230;7.860;2023-03-09T01:20:29;2.60;99.90
19734;DHT22;10018;51.230;7.860;2023-03-09T01:22:55;2.60;99.90
19734;DHT22;10018;51.230;7.860;2023-03-09T01:25:23;2.60;99.90
19734;DHT22;10018;51.230;7.860;2023-03-09T01:27:50;2.60;99.90
19734;DHT22;10018;51.230;7.860;2023-03-09T01:30:16;2.60;99.90
19734;DHT22;10018;51.230;7.860;2023-03-09T01:32:41;2.60;99.90
19734;DHT22;10018;51.230;7.860;2023-03-09T01:35:07;2.60;99.90
19734;DHT22;10018;51.230;7.860;2023-03-09T01:37:33;2.60;99.90
19734;DHT22;10018;51.230;7.860;2023-03-09T01:39:59;2.60;99.90
19734;DHT22;10018;51.230;7.860;2023-03-09T01:42:24;2.70;99.90
19734;DHT22;10018;51.230;7.860;2023-03-09T01:47:51;2.70;99.90
19734;DHT22;10018;51.230;7.860;2023-03-09T01:50:22;2.60;99.90
19734;DHT22;10018;51.230;7.860;2023-03-09T01:52:51;2.60;99.90
19734;DHT22;10018;51.230;7.860;2023-03-09T01:55:24;2.60;99.90
19734;DHT22;10018;51.230;7.860;2023-03-09T01:58:04;2.70;99.90
19734;DHT22;10018;51.230;7.860;2023-03-09T02:00:31;2.60;99.90
19734;DHT22;10018;51.230;7.860;2023-03-09T02:03:03;2.60;99.90
19734;DHT22;10018;51.230;7.860;2023-03-09T02:05:44;2.60;99.90
19734;DHT22;10018;51.230;7.860;2023-03-09T02:08:11;2.60;99.90
19734;DHT22;10018;51.230;7.860;2023-03-09T02:10:46;2.60;99.90
19734;DHT22;10018;51.230;7.860;2023-03-09T02:13:25;2.60;99.90
19734;DHT22;10018;51.230;7.860;2023-03-09T02:15:51;2.60;99.90
19734;DHT22;10018;51.230;7.860;2023-03-09T02:18:17;2.50;99.90
19734;DHT22;10018;51.230;7.860;2023-03-09T02:20:54;2.60;99.90
19734;DHT22;10018;51.230;7.860;2023-03-09T02:29:03;2.50;99.90
19734;DHT22;10018;51.230;7.860;2023-03-09T02:31:28;2.50;99.90
19734;DHT22;10018;51.230;7.860;2023-03-09T02:33:54;2.50;99.90
19734;DHT22;10018;51.230;7.860;2023-03-09T02:36:19;2.50;99.90
19734;DHT22;10018;51.230;7.860;2023-03-09T02:38:46;2.60;99.90
19734;DHT22;10018;51.230;7.860;2023-03-09T02:41:13;2.60;99.90
19734;DHT22;10018;51.230;7.860;2023-03-09T02:43:46;2.60;99.90
19734;DHT22;10018;51.230;7.860;2023-03-09T02:46:12;2.70;99.90
19734;DHT22;10018;51.230;7.860;2023-03-09T02:48:40;2.70;99.90
19734;DHT22;10018;51.230;7.860;2023-03-09T02:51:06;2.70;99.90
19734;DHT22;10018;51.230;7.860;2023-03-09T02:53:32;2.70;99.90
19734;DHT22;10018;51.230;7.860;2023-03-09T02:55:58;2.70;99.90
19734;DHT22;10018;51.230;7.860;2023-03-09T02:58:26;2.70;99.90
19734;DHT22;10018;51.230;7.860;2023-03-09T03:00:51;2.70;99.90
19734;DHT22;10018;51.230;7.860;2023-03-09T03:03:17;2.70;99.90
19734;DHT22;10018;51.230;7.860;2023-03-09T03:05:46;2.70;99.90
19734;DHT22;10018;51.230;7.860;2023-03-09T03:08:11;2.60;99.90
19734;DHT22;10018;51.230;7.860;2023-03-09T03:10:37;2.70;99.90
19734;DHT22;10018;51.230;7.860;2023-03-09T03:13:05;2.70;99.90
19734;DHT22;10018;51.230;7.860;2023-03-09T03:15:31;2.70;99.90
19734;DHT22;10018;51.230;7.860;2023-03-09T03:17:56;2.70;99.90
19734;DHT22;10018;51.230;7.860;2023-03-09T03:20:23;2.70;99.90
19734;DHT22;10018;51.230;7.860;2023-03-09T03:22:48;2.80;99.90
19734;DHT22;10018;51.230;7.860;2023-03-09T03:25:14;2.80;99.90
19734;DHT22;10018;51.230;7.860;2023-03-09T03:27:42;2.80;99.90
19734;DHT22;10018;51.230;7.860;2023-03-09T03:30:08;2.80;99.90
19734;DHT22;10018;51.230;7.860;2023-03-09T03:32:35;2.80;99.90
19734;DHT22;10018;51.230;7.860;2023-03-09T03:35:00;2.80;99.90
19734;DHT22;10018;51.230;7.860;2023-03-09T03:37:26;2.70;99.90
19734;DHT22;10018;51.230;7.860;2023-03-09T03:39:52;2.70;99.90
19734;DHT22;10018;51.230;7.860;2023-03-09T03:42:17;2.80;99.90
19734;DHT22;10018;51.230;7.860;2023-03-09T03:44:43;2.70;99.90
19734;DHT22;10018;51.230;7.860;2023-03-09T03:47:08;2.80;99.90
19734;DHT22;10018;51.230;7.860;2023-03-09T03:49:34;2.80;99.90
19734;DHT22;10018;51.230;7.860;2023-03-09T03:52:02;2.80;99.90
19734;DHT22;10018;51.230;7.860;2023-03-09T03:54:28;2.80;99.90
19734;DHT22;10018;51.230;7.860;2023-03-09T03:56:54;2.80;99.90
19734;DHT22;10018;51.230;7.860;2023-03-09T03:59:19;2.80;99.90
19734;DHT22;10018;51.230;7.860;2023-03-09T04:01:45;2.80;99.90
19734;DHT22;10018;51.230;7.860;2023-03-09T04:04:10;2.80;99.90
19734;DHT22;10018;51.230;7.860;2023-03-09T04:06:36;2.80;99.90
19734;DHT22;10018;51.230;7.860;2023-03-09T04:09:02;2.80;99.90
19734;DHT22;10018;51.230;7.860;2023-03-09T04:11:28;2.80;99.90
19734;DHT22;10018;51.230;7.860;2023-03-09T04:13:53;2.80;99.90
19734;DHT22;10018;51.230;7.860;2023-03-09T04:16:19;2.80;99.90
19734;DHT22;10018;51.230;7.860;2023-03-09T04:18:47;2.80;99.90
19734;DHT22;10018;51.230;7.860;2023-03-09T04:21:13;2.80;99.90
19734;DHT22;10018;51.230;7.860;2023-03-09T04:23:38;2.80;99.90
19734;DHT22;10018;51.230;7.860;2023-03-09T04:26:05;2.80;99.90
19734;DHT22;10018;51.230;7.860;2023-03-09T04:28:33;2.90;99.90
19734;DHT22;10018;51.230;7.860;2023-03-09T04:30:58;3.00;99.90
19734;DHT22;10018;51.230;7.860;2023-03-09T04:33:24;2.90;99.90
19734;DHT22;10018;51.230;7.860;2023-03-09T04:35:49;3.00;99.90
19734;DHT22;10018;51.230;7.860;2023-03-09T04:38:15;3.00;99.90
19734;DHT22;10018;51.230;7.860;2023-03-09T04:40:41;2.90;99.90
19734;DHT22;10018;51.230;7.860;2023-03-09T04:43:07;2.90;99.90
19734;DHT22;10018;51.230;7.860;2023-03-09T04:45:33;2.90;99.90
19734;DHT22;10018;51.230;7.860;2023-03-09T04:47:59;2.90;99.90
19734;DHT22;10018;51.230;7.860;2023-03-09T04:50:27;2.90;99.90
19734;DHT22;10018;51.230;7.860;2023-03-09T04:52:55;2.90;99.90
19734;DHT22;10018;51.230;7.860;2023-03-09T04:55:21;2.90;99.90
19734;DHT22;10018;51.230;7.860;2023-03-09T04:57:47;2.90;99.90
19734;DHT22;10018;51.230;7.860;2023-03-09T05:00:13;3.00;99.90
19734;DHT22;10018;51.230;7.860;2023-03-09T05:02:39;3.00;99.90
19734;DHT22;10018;51.230;7.860;2023-03-09T05:05:06;3.00;99.90
19734;DHT22;10018;51.230;7.860;2023-03-09T05:07:32;3.00;99.90
19734;DHT22;10018;51.230;7.860;2023-03-09T05:09:58;3.00;99.90
19734;DHT22;10018;51.230;7.860;2023-03-09T05:12:23;2.90;99.90
19734;DHT22;10018;51.230;7.860;2023-03-09T05:14:57;2.90;99.90
19734;DHT22;10018;51.230;7.860;2023-03-09T05:17:22;2.90;99.90
19734;DHT22;10018;51.230;7.860;2023-03-09T05:19:50;2.80;99.90
19734;DHT22;10018;51.230;7.860;2023-03-09T05:22:16;2.90;99.90
19734;DHT22;10018;51.230;7.860;2023-03-09T05:24:42;2.80;99.90
19734;DHT22;10018;51.230;7.860;2023-03-09T05:27:08;2.80;99.90
19734;DHT22;10018;51.230;7.860;2023-03-09T05:29:34;2.90;99.90
19734;DHT22;10018;51.230;7.860;2023-03-09T05:31:59;2.80;99.90
19734;DHT22;10018;51.230;7.860;2023-03-09T05:34:25;2.80;99.90
19734;DHT22;10018;51.230;7.860;2023-03-09T05:36:50;2.80;99.90
19734;DHT22;10018;51.230;7.860;2023-03-09T05:39:16;2.80;99.90
19734;DHT22;10018;51.230;7.860;2023-03-09T05:41:44;2.80;99.90
19734;DHT22;10018;51.230;7.860;2023-03-09T05:44:09;2.80;99.90
19734;DHT22;10018;51.230;7.860;2023-03-09T05:46:35;2.80;99.90
19734;DHT22;10018;51.230;7.860;2023-03-09T05:49:01;2.80;99.90
19734;DHT22;10018;51.230;7.860;2023-03-09T05:51:29;2.80;99.90
19734;DHT22;10018;51.230;7.860;2023-03-09T05:53:54;2.80;99.90
19734;DHT22;10018;51.230;7.860;2023-03-09T05:56:20;2.80;99.90
19734;DHT22;10018;51.230;7.860;2023-03-09T05:58:48;2.80;99.90
19734;DHT22;10018;51.230;7.860;2023-03-09T06:01:19;2.90;99.90
19734;DHT22;10018;51.230;7.860;2023-03-09T06:03:45;2.90;99.90
19734;DHT22;10018;51.230;7.860;2023-03-09T06:06:10;2.90;99.90
19734;DHT22;10018;51.230;7.860;2023-03-09T06:08:36;2.90;99.90
19734;DHT22;10018;51.230;7.860;2023-03-09T06:11:04;2.80;99.90
19734;DHT22;10018;51.230;7.860;2023-03-09T06:13:32;2.80;99.90
19734;DHT22;10018;51.230;7.860;2023-03-09T06:15:57;2.80;99.90
19734;DHT22;10018;51.230;7.860;2023-03-09T06:18:23;2.80;99.90
19734;DHT22;10018;51.230;7.860;2023-03-09T06:20:49;2.80;99.90
19734;DHT22;10018;51.230;7.860;2023-03-09T06:23:14;2.90;99.90
19734;DHT22;10018;51.230;7.860;2023-03-09T06:25:40;2.80;99.90
19734;DHT22;10018;51.230;7.860;2023-03-09T06:28:06;2.80;99.90
19734;DHT22;10018;51.230;7.860;2023-03-09T06:30:32;2.80;99.90
19734;DHT22;10018;51.230;7.860;2023-03-09T06:32:57;2.80;99.90
19734;DHT22;10018;51.230;7.860;2023-03-09T06:35:24;2.80;99.90
19734;DHT22;10018;51.230;7.860;2023-03-09T06:37:50;2.80;99.90
19734;DHT22;10018;51.230;7.860;2023-03-09T06:40:16;2.80;99.90
19734;DHT22;10018;51.230;7.860;2023-03-09T06:42:42;2.90;99.90
19734;DHT22;10018;51.230;7.860;2023-03-09T06:45:08;3.00;99.90
19734;DHT22;10018;51.230;7.860;2023-03-09T06:47:34;3.00;99.90
19734;DHT22;10018;51.230;7.860;2023-03-09T06:50:00;3.00;99.90
19734;DHT22;10018;51.230;7.860;2023-03-09T06:52:25;3.00;99.90
19734;DHT22;10018;51.230;7.860;2023-03-09T06:54:52;3.00;99.90
19734;DHT22;10018;51.230;7.860;2023-03-09T06:57:20;3.00;99.90
19734;DHT22;10018;51.230;7.860;2023-03-09T06:59:45;3.00;99.90
19734;DHT22;10018;51.230;7.860;2023-03-09T07:02:12;2.90;99.90
19734;DHT22;10018;51.230;7.860;2023-03-09T07:04:38;2.90;99.90
19734;DHT22;10018;51.230;7.860;2023-03-09T07:07:06;2.90;99.90
19734;DHT22;10018;51.230;7.860;2023-03-09T07:09:32;2.90;99.90
19734;DHT22;10018;51.230;7.860;2023-03-09T07:11:58;3.00;99.90
19734;DHT22;10018;51.230;7.860;2023-03-09T07:14:25;3.00;99.90
19734;DHT22;10018;51.230;7.860;2023-03-09T07:16:51;3.00;99.90
19734;DHT22;10018;51.230;7.860;2023-03-09T07:19:17;3.10;99.90
19734;DHT22;10018;51.230;7.860;2023-03-09T07:21:43;3.20;99.90
19734;DHT22;10018;51.230;7.860;2023-03-09T07:24:08;3.30;99.90
19734;DHT22;10018;51.230;7.860;2023-03-09T07:26:36;3.30;99.90
19734;DHT22;10018;51.230;7.860;2023-03-09T07:29:02;3.40;99.90
19734;DHT22;10018;51.230;7.860;2023-03-09T07:31:28;3.40;99.90
19734;DHT22;10018;51.230;7.860;2023-03-09T07:33:58;3.40;99.90
19734;DHT22;10018;51.230;7.860;2023-03-09T07:36:24;3.50;99.90
19734;DHT22;10018;51.230;7.860;2023-03-09T07:38:50;3.60;99.90
19734;DHT22;10018;51.230;7.860;2023-03-09T07:41:16;3.70;99.90
19734;DHT22;10018;51.230;7.860;2023-03-09T07:43:42;3.80;99.90
19734;DHT22;10018;51.230;7.860;2023-03-09T07:46:14;3.80;99.90
19734;DHT22;10018;51.230;7.860;2023-03-09T07:48:41;3.90;99.90
19734;DHT22;10018;51.230;7.860;2023-03-09T07:51:07;3.90;99.90
19734;DHT22;10018;51.230;7.860;2023-03-09T07:53:35;4.00;99.90
19734;DHT22;10018;51.230;7.860;2023-03-09T07:56:01;4.00;99.90
19734;DHT22;10018;51.230;7.860;2023-03-09T07:58:35;4.10;99.90
19734;DHT22;10018;51.230;7.860;2023-03-09T08:01:01;4.20;99.90
19734;DHT22;10018;51.230;7.860;2023-03-09T08:03:30;4.10;99.90
19734;DHT22;10018;51.230;7.860;2023-03-09T08:05:55;4.20;99.90
19734;DHT22;10018;51.230;7.860;2023-03-09T08:08:22;4.30;99.90
19734;DHT22;10018;51.230;7.860;2023-03-09T08:10:51;4.30;99.90
19734;DHT22;10018;51.230;7.860;2023-03-09T08:13:19;4.40;99.90
19734;DHT22;10018;51.230;7.860;2023-03-09T08:15:47;4.40;99.90
19734;DHT22;10018;51.230;7.860;2023-03-09T08:18:13;4.50;99.90
19734;DHT22;10018;51.230;7.860;2023-03-09T08:20:39;4.50;99.90
19734;DHT22;10018;51.230;7.860;2023-03-09T08:23:05;4.60;99.90
19734;DHT22;10018;51.230;7.860;2023-03-09T08:25:31;4.60;99.90
19734;DHT22;10018;51.230;7.860;2023-03-09T08:27:57;4.60;99.90
19734;DHT22;10018;51.230;7.860;2023-03-09T08:30:24;4.60;99.90
19734;DHT22;10018;51.230;7.860;2023-03-09T08:32:51;4.60;99.90
19734;DHT22;10018;51.230;7.860;2023-03-09T08:35:18;4.60;99.90
19734;DHT22;10018;51.230;7.860;2023-03-09T08:37:44;4.70;99.90
19734;DHT22;10018;51.230;7.860;2023-03-09T08:40:11;4.70;99.90
19734;DHT22;10018;51.230;7.860;2023-03-09T08:42:39;4.80;99.90
19734;DHT22;10018;51.230;7.860;2023-03-09T08:45:06;4.80;99.90
19734;DHT22;10018;51.230;7.860;2023-03-09T08:47:32;4.80;99.90
19734;DHT22;10018;51.230;7.860;2023-03-09T08:50:01;4.90;99.90
19734;DHT22;10018;51.230;7.860;2023-03-09T08:52:29;5.00;99.90
19734;DHT22;10018;51.230;7.860;2023-03-09T08:55:03;5.00;99.90
19734;DHT22;10018;51.230;7.860;2023-03-09T08:57:29;5.00;99.90
19734;DHT22;10018;51.230;7.860;2023-03-09T08:59:55;5.10;99.90
19734;DHT22;10018;51.230;7.860;2023-03-09T09:02:23;5.10;99.90
19734;DHT22;10018;51.230;7.860;2023-03-09T09:04:49;5.20;99.90
19734;DHT22;10018;51.230;7.860;2023-03-09T09:07:15;5.30;99.90
19734;DHT22;10018;51.230;7.860;2023-03-09T09:09:41;5.30;99.90
19734;DHT22;10018;51.230;7.860;2023-03-09T09:12:09;5.30;99.90
19734;DHT22;10018;51.230;7.860;2023-03-09T09:14:36;5.30;99.90
19734;DHT22;10018;51.230;7.860;2023-03-09T09:17:06;5.30;99.90
19734;DHT22;10018;51.230;7.860;2023-03-09T09:19:34;5.20;99.90
19734;DHT22;10018;51.230;7.860;2023-03-09T09:22:00;5.30;99.90
19734;DHT22;10018;51.230;7.860;2023-03-09T09:24:26;5.30;99.90
19734;DHT22;10018;51.230;7.860;2023-03-09T09:26:57;5.40;99.90
19734;DHT22;10018;51.230;7.860;2023-03-09T09:29:23;5.50;99.90
19734;DHT22;10018;51.230;7.860;2023-03-09T09:31:49;5.50;99.90
19734;DHT22;10018;51.230;7.860;2023-03-09T09:34:15;5.60;99.90
19734;DHT22;10018;51.230;7.860;2023-03-09T09:36:43;5.70;99.90
19734;DHT22;10018;51.230;7.860;2023-03-09T09:39:09;5.70;99.90
19734;DHT22;10018;51.230;7.860;2023-03-09T09:41:46;5.80;99.90
19734;DHT22;10018;51.230;7.860;2023-03-09T09:44:17;5.80;99.90
19734;DHT22;10018;51.230;7.860;2023-03-09T09:46:45;5.90;99.90
19734;DHT22;10018;51.230;7.860;2023-03-09T09:49:19;6.00;99.90
19734;DHT22;10018;51.230;7.860;2023-03-09T09:55:01;6.00;99.90
19734;DHT22;10018;51.230;7.860;2023-03-09T09:57:43;6.00;99.90
19734;DHT22;10018;51.230;7.860;2023-03-09T10:11:49;6.20;99.90
19734;DHT22;10018;51.230;7.860;2023-03-09T10:14:40;6.30;99.90
19734;DHT22;10018;51.230;7.860;2023-03-09T10:19:49;6.40;99.90
19734;DHT22;10018;51.230;7.860;2023-03-09T10:22:22;6.40;99.90
19734;DHT22;10018;51.230;7.860;2023-03-09T10:24:49;6.50;99.90
19734;DHT22;10018;51.230;7.860;2023-03-09T10:32:44;6.70;99.90
19734;DHT22;10018;51.230;7.860;2023-03-09T10:35:34;6.70;99.90
19734;DHT22;10018;51.230;7.860;2023-03-09T10:38:06;6.80;99.90
19734;DHT22;10018;51.230;7.860;2023-03-09T10:40:44;6.80;99.90
19734;DHT22;10018;51.230;7.860;2023-03-09T10:43:34;6.90;99.90
19734;DHT22;10018;51.230;7.860;2023-03-09T10:46:17;7.00;99.90
19734;DHT22;10018;51.230;7.860;2023-03-09T10:48:45;7.20;99.90
19734;DHT22;10018;51.230;7.860;2023-03-09T10:51:27;7.20;99.90
19734;DHT22;10018;51.230;7.860;2023-03-09T10:53:54;7.20;99.90
19734;DHT22;10018;51.230;7.860;2023-03-09T10:59:07;7.00;99.90
19734;DHT22;10018;51.230;7.860;2023-03-09T11:01:34;7.00;99.90
19734;DHT22;10018;51.230;7.860;2023-03-09T11:07:16;7.00;99.90
19734;DHT22;10018;51.230;7.860;2023-03-09T11:09:47;7.10;99.90
19734;DHT22;10018;51.230;7.860;2023-03-09T11:12:34;7.20;99.90
19734;DHT22;10018;51.230;7.860;2023-03-09T11:15:12;7.30;99.90
19734;DHT22;10018;51.230;7.860;2023-03-09T11:17:48;7.40;99.90
19734;DHT22;10018;51.230;7.860;2023-03-09T11:20:34;7.40;99.90
19734;DHT22;10018;51.230;7.860;2023-03-09T11:31:18;7.40;99.90
19734;DHT22;10018;51.230;7.860;2023-03-09T11:33:46;7.40;99.90
19734;DHT22;10018;51.230;7.860;2023-03-09T11:36:20;7.30;99.90
19734;DHT22;10018;51.230;7.860;2023-03-09T11:38:48;7.30;99.90
19734;DHT22;10018;51.230;7.860;2023-03-09T11:41:18;7.20;99.90
19734;DHT22;10018;51.230;7.860;2023-03-09T11:43:49;7.10;99.90
19734;DHT22;10018;51.230;7.860;2023-03-09T11:46:19;7.20;99.90
19734;DHT22;10018;51.230;7.860;2023-03-09T11:48:52;7.20;99.90
19734;DHT22;10018;51.230;7.860;2023-03-09T11:51:41;7.30;99.90
19734;DHT22;10018;51.230;7.860;2023-03-09T11:57:04;7.30;99.90
19734;DHT22;10018;51.230;7.860;2023-03-09T12:02:23;7.40;99.90
19734;DHT22;10018;51.230;7.860;2023-03-09T12:04:50;7.40;99.90
19734;DHT22;10018;51.230;7.860;2023-03-09T12:07:20;7.40;99.90
19734;DHT22;10018;51.230;7.860;2023-03-09T12:10:08;7.50;99.90
19734;DHT22;10018;51.230;7.860;2023-03-09T12:15:16;7.50;99.90
19734;DHT22;10018;51.230;7.860;2023-03-09T12:17:56;7.50;99.90
19734;DHT22;10018;51.230;7.860;2023-03-09T12:21:08;7.50;99.90
19734;DHT22;10018;51.230;7.860;2023-03-09T12:26:29;7.70;99.90
19734;DHT22;10018;51.230;7.860;2023-03-09T12:29:21;7.80;99.90
19734;DHT22;10018;51.230;7.860;2023-03-09T12:34:40;7.80;99.90
19734;DHT22;10018;51.230;7.860;2023-03-09T12:42:41;7.80;99.90
19734;DHT22;10018;51.230;7.860;2023-03-09T13:03:48;7.70;99.90
19734;DHT22;10018;51.230;7.860;2023-03-09T13:06:38;7.80;99.90
19734;DHT22;10018;51.230;7.860;2023-03-09T13:09:28;7.80;99.90
19734;DHT22;10018;51.230;7.860;2023-03-09T13:16:58;7.80;99.90
19734;DHT22;10018;51.230;7.860;2023-03-09T13:24:36;7.90;99.90
19734;DHT22;10018;51.230;7.860;2023-03-09T13:29:47;7.90;99.90
19734;DHT22;10018;51.230;7.860;2023-03-09T13:32:35;7.90;99.90
19734;DHT22;10018;51.230;7.860;2023-03-09T13:35:15;7.90;99.90
19734;DHT22;10018;51.230;7.860;2023-03-09T13:37:42;8.00;99.90
19734;DHT22;10018;51.230;7.860;2023-03-09T13:40:32;8.00;99.90
19734;DHT22;10018;51.230;7.860;2023-03-09T13:43:00;7.90;99.90
19734;DHT22;10018;51.230;7.860;2023-03-09T13:45:31;8.00;99.90
19734;DHT22;10018;51.230;7.860;2023-03-09T13:48:11;8.00;99.90
19734;DHT22;10018;51.230;7.860;2023-03-09T13:50:45;8.00;99.90
19734;DHT22;10018;51.230;7.860;2023-03-09T13:55:39;7.90;99.90
19734;DHT22;10018;51.230;7.860;2023-03-09T13:58:14;7.90;99.90
19734;DHT22;10018;51.230;7.860;2023-03-09T14:03:16;7.80;99.90
19734;DHT22;10018;51.230;7.860;2023-03-09T14:05:42;7.80;99.90
19734;DHT22;10018;51.230;7.860;2023-03-09T14:08:21;7.70;99.90
19734;DHT22;10018;51.230;7.860;2023-03-09T14:10:48;7.60;99.90
19734;DHT22;10018;51.230;7.860;2023-03-09T14:13:19;7.60;99.90
19734;DHT22;10018;51.230;7.860;2023-03-09T14:20:58;7.50;99.90
19734;DHT22;10018;51.230;7.860;2023-03-09T14:23:41;7.50;99.90
19734;DHT22;10018;51.230;7.860;2023-03-09T14:26:08;7.60;99.90
19734;DHT22;10018;51.230;7.860;2023-03-09T14:28:36;7.60;99.90
19734;DHT22;10018;51.230;7.860;2023-03-09T14:31:17;7.60;99.90
19734;DHT22;10018;51.230;7.860;2023-03-09T14:36:21;7.60;99.90
19734;DHT22;10018;51.230;7.860;2023-03-09T14:38:56;7.60;99.90
19734;DHT22;10018;51.230;7.860;2023-03-09T14:41:25;7.50;99.90
19734;DHT22;10018;51.230;7.860;2023-03-09T14:43:51;7.40;99.90
19734;DHT22;10018;51.230;7.860;2023-03-09T14:46:21;7.50;99.90
19734;DHT22;10018;51.230;7.860;2023-03-09T14:48:48;7.50;99.90
19734;DHT22;10018;51.230;7.860;2023-03-09T14:51:31;7.50;99.90
19734;DHT22;10018;51.230;7.860;2023-03-09T14:54:12;7.50;99.90
19734;DHT22;10018;51.230;7.860;2023-03-09T14:56:39;7.50;99.90
19734;DHT22;10018;51.230;7.860;2023-03-09T14:59:11;7.50;99.90
19734;DHT22;10018;51.230;7.860;2023-03-09T15:01:44;7.50;99.90
19734;DHT22;10018;51.230;7.860;2023-03-09T15:04:16;7.60;99.90
19734;DHT22;10018;51.230;7.860;2023-03-09T15:06:45;7.50;99.90
19734;DHT22;10018;51.230;7.860;2023-03-09T15:09:12;7.50;99.90
19734;DHT22;10018;51.230;7.860;2023-03-09T15:11:40;7.50;99.90
19734;DHT22;10018;51.230;7.860;2023-03-09T15:14:33;7.50;99.90
19734;DHT22;10018;51.230;7.860;2023-03-09T15:17:01;7.50;99.90
19734;DHT22;10018;51.230;7.860;2023-03-09T15:19:26;7.50;99.90
19734;DHT22;10018;51.230;7.860;2023-03-09T15:21:53;7.60;99.90
19734;DHT22;10018;51.230;7.860;2023-03-09T15:24:21;7.60;99.90
19734;DHT22;10018;51.230;7.860;2023-03-09T15:26:47;7.60;99.90
19734;DHT22;10018;51.230;7.860;2023-03-09T15:29:12;7.70;99.90
19734;DHT22;10018;51.230;7.860;2023-03-09T15:31:38;7.60;99.90
19734;DHT22;10018;51.230;7.860;2023-03-09T15:34:03;7.70;99.90
19734;DHT22;10018;51.230;7.860;2023-03-09T15:36:29;7.70;99.90
19734;DHT22;10018;51.230;7.860;2023-03-09T15:38:55;7.80;99.90
19734;DHT22;10018;51.230;7.860;2023-03-09T15:41:21;7.80;99.90
19734;DHT22;10018;51.230;7.860;2023-03-09T15:43:48;7.90;99.90
19734;DHT22;10018;51.230;7.860;2023-03-09T15:46:14;8.00;99.90
19734;DHT22;10018;51.230;7.860;2023-03-09T15:48:40;8.20;99.90
19734;DHT22;10018;51.230;7.860;2023-03-09T15:51:08;8.40;99.90
19734;DHT22;10018;51.230;7.860;2023-03-09T15:53:33;8.50;99.90
19734;DHT22;10018;51.230;7.860;2023-03-09T15:56:10;8.50;99.90
19734;DHT22;10018;51.230;7.860;2023-03-09T15:58:36;8.70;99.90
19734;DHT22;10018;51.230;7.860;2023-03-09T16:01:05;8.80;99.90
19734;DHT22;10018;51.230;7.860;2023-03-09T16:03:31;8.90;99.90
19734;DHT22;10018;51.230;7.860;2023-03-09T16:05:58;9.10;99.90
19734;DHT22;10018;51.230;7.860;2023-03-09T16:08:24;9.20;99.90
19734;DHT22;10018;51.230;7.860;2023-03-09T16:10:50;9.30;99.90
19734;DHT22;10018;51.230;7.860;2023-03-09T16:13:16;9.40;99.90
19734;DHT22;10018;51.230;7.860;2023-03-09T16:15:48;9.50;99.90
19734;DHT22;10018;51.230;7.860;2023-03-09T16:18:17;9.50;99.90
19734;DHT22;10018;51.230;7.860;2023-03-09T16:20:43;9.50;99.90
19734;DHT22;10018;51.230;7.860;2023-03-09T16:23:09;9.30;99.90
19734;DHT22;10018;51.230;7.860;2023-03-09T16:25:34;9.30;99.90
19734;DHT22;10018;51.230;7.860;2023-03-09T16:28:03;9.20;99.90
19734;DHT22;10018;51.230;7.860;2023-03-09T16:30:29;9.20;99.90
19734;DHT22;10018;51.230;7.860;2023-03-09T16:32:57;9.30;99.90
19734;DHT22;10018;51.230;7.860;2023-03-09T16:35:24;9.20;99.90
19734;DHT22;10018;51.230;7.860;2023-03-09T16:37:51;9.20;99.90
19734;DHT22;10018;51.230;7.860;2023-03-09T16:40:17;9.20;99.90
19734;DHT22;10018;51.230;7.860;2023-03-09T16:42:43;9.20;99.90
19734;DHT22;10018;51.230;7.860;2023-03-09T16:45:16;9.10;99.90
19734;DHT22;10018;51.230;7.860;2023-03-09T16:47:43;9.10;99.90
19734;DHT22;10018;51.230;7.860;2023-03-09T16:50:17;9.20;99.90
19734;DHT22;10018;51.230;7.860;2023-03-09T16:52:44;9.20;99.90
19734;DHT22;10018;51.230;7.860;2023-03-09T16:55:17;9.10;99.90
19734;DHT22;10018;51.230;7.860;2023-03-09T16:57:46;9.20;99.90
19734;DHT22;10018;51.230;7.860;2023-03-09T17:00:14;9.10;99.90
19734;DHT22;10018;51.230;7.860;2023-03-09T17:02:41;9.00;99.90
19734;DHT22;10018;51.230;7.860;2023-03-09T17:05:08;9.00;99.90
19734;DHT22;10018;51.230;7.860;2023-03-09T17:07:34;8.90;99.90
19734;DHT22;10018;51.230;7.860;2023-03-09T17:10:02;8.90;99.90
19734;DHT22;10018;51.230;7.860;2023-03-09T17:12:29;8.80;99.90
19734;DHT22;10018;51.230;7.860;2023-03-09T17:14:54;8.80;99.90
19734;DHT22;10018;51.230;7.860;2023-03-09T17:17:20;8.70;99.90
19734;DHT22;10018;51.230;7.860;2023-03-09T17:19:46;8.70;99.90
19734;DHT22;10018;51.230;7.860;2023-03-09T17:22:12;8.70;99.90
19734;DHT22;10018;51.230;7.860;2023-03-09T17:24:38;8.60;99.90
19734;DHT22;10018;51.230;7.860;2023-03-09T17:27:03;8.70;99.90
19734;DHT22;10018;51.230;7.860;2023-03-09T17:29:31;8.70;99.90
19734;DHT22;10018;51.230;7.860;2023-03-09T17:31:57;8.60;99.90
19734;DHT22;10018;51.230;7.860;2023-03-09T17:34:23;8.60;99.90
19734;DHT22;10018;51.230;7.860;2023-03-09T17:36:49;8.70;99.90
19734;DHT22;10018;51.230;7.860;2023-03-09T17:39:15;8.60;99.90
19734;DHT22;10018;51.230;7.860;2023-03-09T17:41:42;8.60;99.90
19734;DHT22;10018;51.230;7.860;2023-03-09T17:44:10;8.60;99.90
19734;DHT22;10018;51.230;7.860;2023-03-09T17:46:36;8.60;99.90